createdAt,value
2018-11-20T00:02:37.971Z,1.00
2018-11-20T00:05:39.506Z,1.00
2018-11-20T00:08:41.191Z,1.00
2018-11-20T00:11:23.593Z,0.90
2018-11-20T00:14:24.610Z,0.90
2018-11-20T00:17:26.233Z,0.90
2018-11-20T00:22:50.214Z,0.90
2018-11-20T00:25:46.677Z,0.90
2018-11-20T00:28:48.157Z,0.90
2018-11-20T00:37:36.597Z,0.80
2018-11-20T00:43:09.447Z,0.80
2018-11-20T00:45:52.171Z,0.80
2018-11-20T00:51:28.891Z,0.80
2018-11-20T00:54:29.821Z,0.80
2018-11-20T01:00:22.489Z,0.80
2018-11-20T01:03:04.950Z,0.80
2018-11-20T01:06:05.793Z,0.80
2018-11-20T01:09:06.714Z,0.80
2018-11-20T01:12:10.898Z,0.80
2018-11-20T01:17:53.327Z,0.70
2018-11-20T01:20:47.232Z,0.70
2018-11-20T01:23:47.440Z,0.70
2018-11-20T01:26:55.248Z,0.70
2018-11-20T01:29:56.875Z,0.70
2018-11-20T01:32:39.174Z,0.70
2018-11-20T01:35:40.542Z,0.70
2018-11-20T01:38:35.020Z,0.70
2018-11-20T01:41:38.494Z,0.60
2018-11-20T01:44:39.661Z,0.60
2018-11-20T01:47:40.806Z,0.60
2018-11-20T01:50:45.788Z,0.60
2018-11-20T01:53:47.107Z,0.60
2018-11-20T01:56:48.550Z,0.60
2018-11-20T01:59:50.283Z,0.60
2018-11-20T02:02:51.139Z,0.60
2018-11-20T02:08:56.517Z,0.60
2018-11-20T02:15:46.953Z,0.60
2018-11-20T02:18:48.330Z,0.50
2018-11-20T02:21:49.476Z,0.50
2018-11-20T02:24:56.981Z,0.50
2018-11-20T02:27:58.832Z,0.50
2018-11-20T02:31:00.580Z,0.50
2018-11-20T02:34:02.121Z,0.50
2018-11-20T02:37:03.438Z,0.40
2018-11-20T02:40:07.824Z,0.50
2018-11-20T02:43:09.250Z,0.50
2018-11-20T02:48:32.909Z,0.40
2018-11-20T02:51:36.877Z,0.40
2018-11-20T02:57:22.728Z,0.40
2018-11-20T03:00:15.983Z,0.40
2018-11-20T03:03:08.803Z,0.40
2018-11-20T03:06:10.248Z,0.40
2018-11-20T03:08:52.625Z,0.40
2018-11-20T03:11:53.776Z,0.50
2018-11-20T03:14:57.556Z,0.50
2018-11-20T03:17:58.550Z,0.40
2018-11-20T03:20:59.721Z,0.40
2018-11-20T03:30:11.463Z,0.40
2018-11-20T03:35:53.813Z,0.50
2018-11-20T03:38:55.245Z,0.40
2018-11-20T03:41:56.713Z,0.50
2018-11-20T03:44:58.105Z,0.40
2018-11-20T03:47:58.956Z,0.40
2018-11-20T03:53:37.320Z,0.40
2018-11-20T03:56:19.911Z,0.40
2018-11-20T03:59:21.469Z,0.40
2018-11-20T04:04:44.642Z,0.40
2018-11-20T04:07:48.002Z,0.40
2018-11-20T04:10:33.772Z,0.40
2018-11-20T04:15:58.269Z,0.40
2018-11-20T04:19:06.791Z,0.30
2018-11-20T04:28:12.081Z,0.60
2018-11-20T04:31:03.058Z,0.40
2018-11-20T04:34:04.122Z,0.40
2018-11-20T04:36:46.769Z,0.40
2018-11-20T04:45:33.355Z,0.40
2018-11-20T04:48:27.763Z,0.40
2018-11-20T04:56:56.244Z,0.30
2018-11-20T05:02:38.768Z,0.40
2018-11-20T05:08:02.036Z,0.30
2018-11-20T05:10:44.130Z,0.40
2018-11-20T05:13:36.999Z,0.40
2018-11-20T05:16:38.524Z,0.30
2018-11-20T05:19:43.053Z,0.30
2018-11-20T05:22:51.517Z,0.40
2018-11-20T05:25:41.455Z,0.40
2018-11-20T05:28:50.201Z,0.40
2018-11-20T05:31:57.257Z,0.40
2018-11-20T05:34:58.597Z,0.40
2018-11-20T05:37:59.428Z,0.40
2018-11-20T05:41:00.257Z,0.50
2018-11-20T05:44:01.893Z,0.50
2018-11-20T05:47:02.963Z,0.40
2018-11-20T05:50:04.540Z,0.40
2018-11-20T05:53:05.928Z,0.40
2018-11-20T05:56:07.519Z,0.40
2018-11-20T05:58:50.059Z,0.40
2018-11-20T06:01:54.613Z,0.40
2018-11-20T06:04:46.418Z,0.40
2018-11-20T06:07:41.412Z,0.50
2018-11-20T06:10:45.838Z,0.50
2018-11-20T06:13:46.714Z,0.50
2018-11-20T06:16:48.220Z,0.50
2018-11-20T06:19:56.128Z,0.50
2018-11-20T06:22:57.910Z,0.50
2018-11-20T06:25:59.229Z,0.50
2018-11-20T06:29:00.907Z,0.50
2018-11-20T06:32:04.840Z,0.60
2018-11-20T06:35:15.935Z,0.70
2018-11-20T06:38:20.434Z,0.60
2018-11-20T06:41:21.554Z,0.60
2018-11-20T06:44:23.073Z,0.60
2018-11-20T06:47:24.231Z,0.70
2018-11-20T06:50:25.948Z,0.70
2018-11-20T06:53:26.935Z,0.70
2018-11-20T06:56:27.856Z,0.70
2018-11-20T06:59:26.318Z,0.70
2018-11-20T07:02:27.947Z,0.80
2018-11-20T07:05:23.363Z,0.70
2018-11-20T07:11:38.261Z,0.70
2018-11-20T07:14:37.077Z,0.80
2018-11-20T07:17:33.609Z,0.80
2018-11-20T07:20:34.777Z,0.70
2018-11-20T07:23:35.948Z,0.70
2018-11-20T07:26:39.416Z,0.70
2018-11-20T07:29:40.898Z,0.80
2018-11-20T07:32:41.620Z,0.80
2018-11-20T07:35:43.295Z,0.80
2018-11-20T07:38:47.904Z,0.80
2018-11-20T07:41:49.305Z,0.90
2018-11-20T07:44:51.010Z,0.90
2018-11-20T07:47:51.947Z,1.00
2018-11-20T07:50:53.434Z,0.90
2018-11-20T07:53:54.516Z,0.90
2018-11-20T07:56:55.833Z,1.00
2018-11-20T07:59:52.428Z,1.00
2018-11-20T08:02:53.523Z,1.00
2018-11-20T08:05:54.876Z,1.10
2018-11-20T08:08:55.817Z,1.10
2018-11-20T08:11:56.691Z,1.10
2018-11-20T08:14:58.358Z,1.10
2018-11-20T08:17:59.281Z,1.20
2018-11-20T08:21:00.177Z,1.20
2018-11-20T08:24:08.116Z,1.20
2018-11-20T08:27:02.996Z,1.20
2018-11-20T08:33:11.789Z,1.20
2018-11-20T08:36:11.010Z,1.30
2018-11-20T08:39:18.555Z,1.40
2018-11-20T08:42:19.615Z,1.40
2018-11-20T08:45:20.527Z,1.50
2018-11-20T08:48:21.461Z,1.40
2018-11-20T08:51:22.884Z,1.50
2018-11-20T08:54:24.334Z,1.60
2018-11-20T08:57:20.672Z,1.60
2018-11-20T09:00:22.468Z,1.60
2018-11-20T09:03:23.621Z,1.80
2018-11-20T09:06:25.115Z,1.80
2018-11-20T09:09:26.673Z,1.70
2018-11-20T09:12:30.273Z,1.70
2018-11-20T09:15:31.807Z,1.90
2018-11-20T09:18:22.307Z,2.00
2018-11-20T09:21:31.232Z,2.10
2018-11-20T09:24:32.655Z,2.10
2018-11-20T09:27:34.266Z,2.10
2018-11-20T09:30:35.290Z,2.00
2018-11-20T09:33:36.186Z,2.10
2018-11-20T09:36:37.302Z,2.30
2018-11-20T09:39:28.738Z,2.20
2018-11-20T09:42:24.934Z,2.20
2018-11-20T09:45:21.618Z,2.40
2018-11-20T09:48:22.746Z,2.30
2018-11-20T09:51:24.405Z,2.40
2018-11-20T09:54:17.089Z,2.40
2018-11-20T09:57:18.141Z,2.50
2018-11-20T10:00:16.811Z,2.60
2018-11-20T10:03:23.761Z,2.50
2018-11-20T10:06:18.273Z,2.50
2018-11-20T10:09:19.690Z,2.60
2018-11-20T10:12:24.200Z,2.70
2018-11-20T10:15:31.742Z,2.70
2018-11-20T10:18:33.383Z,2.70
2018-11-20T10:21:40.872Z,2.80
2018-11-20T10:24:41.719Z,2.90
2018-11-20T10:27:42.481Z,2.90
2018-11-20T10:30:44.005Z,2.90
2018-11-20T10:33:45.468Z,2.80
2018-11-20T10:36:46.061Z,2.90
2018-11-20T10:39:42.114Z,2.90
2018-11-20T10:42:42.997Z,2.80
2018-11-20T10:45:44.028Z,2.70
2018-11-20T10:48:45.485Z,2.70
2018-11-20T10:51:36.376Z,2.80
2018-11-20T10:54:37.483Z,3.00
2018-11-20T10:57:39.127Z,3.20
2018-11-20T11:00:40.668Z,3.10
2018-11-20T11:03:41.565Z,3.10
2018-11-20T11:06:49.333Z,3.00
2018-11-20T11:09:39.652Z,2.90
2018-11-20T11:12:40.967Z,3.00
2018-11-20T11:15:41.967Z,3.00
2018-11-20T11:18:43.586Z,3.00
2018-11-20T11:24:53.176Z,3.00
2018-11-20T11:27:54.744Z,3.20
2018-11-20T11:30:55.932Z,3.50
2018-11-20T11:33:57.358Z,3.40
2018-11-20T11:36:58.904Z,3.30
2018-11-20T11:39:59.869Z,3.30
2018-11-20T11:43:07.043Z,3.40
2018-11-20T11:46:08.451Z,3.60
2018-11-20T11:49:10.243Z,3.70
2018-11-20T11:52:11.898Z,3.80
2018-11-20T11:55:12.821Z,3.60
2018-11-20T11:58:16.897Z,3.50
2018-11-20T12:01:15.379Z,3.50
2018-11-20T12:07:06.521Z,3.50
2018-11-20T12:10:07.245Z,3.50
2018-11-20T12:16:08.933Z,3.40
2018-11-20T12:19:09.967Z,3.50
2018-11-20T12:22:11.237Z,3.30
2018-11-20T12:25:12.486Z,3.50
2018-11-20T12:28:14.712Z,3.50
2018-11-20T12:31:18.240Z,3.50
2018-11-20T12:34:19.582Z,3.60
2018-11-20T12:37:22.485Z,3.60
2018-11-20T12:40:11.853Z,3.60
2018-11-20T12:43:20.567Z,3.60
2018-11-20T12:46:21.919Z,3.60
2018-11-20T12:49:23.523Z,3.70
2018-11-20T12:52:24.865Z,3.60
2018-11-20T12:55:26.266Z,3.50
2018-11-20T12:58:28.024Z,3.80
2018-11-20T13:01:28.902Z,3.80
2018-11-20T13:04:29.732Z,3.80
2018-11-20T13:07:31.286Z,3.70
2018-11-20T13:10:32.024Z,3.90
2018-11-20T13:13:39.513Z,4.00
2018-11-20T13:17:00.748Z,3.90
2018-11-20T13:20:00.464Z,3.90
2018-11-20T13:22:57.452Z,3.80
2018-11-20T13:25:54.239Z,3.80
2018-11-20T13:28:55.819Z,3.80
2018-11-20T13:31:57.426Z,3.90
2018-11-20T13:35:04.186Z,3.90
2018-11-20T13:38:05.220Z,3.90
2018-11-20T13:41:12.381Z,3.90
2018-11-20T13:44:11.828Z,3.70
2018-11-20T13:47:11.873Z,3.80
2018-11-20T13:49:53.954Z,3.80
2018-11-20T13:52:55.453Z,3.70
2018-11-20T13:55:57.094Z,3.80
2018-11-20T13:58:57.055Z,3.80
2018-11-20T14:01:58.076Z,3.80
2018-11-20T14:05:05.429Z,3.50
2018-11-20T14:08:06.889Z,3.50
2018-11-20T14:11:08.507Z,3.60
2018-11-20T14:14:09.456Z,3.70
2018-11-20T14:17:10.970Z,3.60
2018-11-20T14:20:12.628Z,3.60
2018-11-20T14:23:14.087Z,3.70
2018-11-20T14:26:17.916Z,3.70
2018-11-20T14:29:19.580Z,3.70
2018-11-20T14:32:20.408Z,3.60
2018-11-20T14:35:25.121Z,3.70
2018-11-20T14:42:08.922Z,3.60
2018-11-20T14:45:02.548Z,3.50
2018-11-20T14:48:03.494Z,3.60
2018-11-20T14:51:10.630Z,3.50
2018-11-20T14:54:14.628Z,3.40
2018-11-20T14:57:06.730Z,3.40
2018-11-20T15:00:10.798Z,3.50
2018-11-20T15:03:12.363Z,3.50
2018-11-20T15:06:13.932Z,3.40
2018-11-20T15:09:14.942Z,3.30
2018-11-20T15:12:11.307Z,3.20
2018-11-20T15:15:13.004Z,3.20
2018-11-20T15:18:14.626Z,3.10
2018-11-20T15:21:16.233Z,3.00
2018-11-20T15:24:16.998Z,2.90
2018-11-20T15:27:09.459Z,2.90
2018-11-20T15:30:10.649Z,2.80
2018-11-20T15:33:12.321Z,2.70
2018-11-20T15:36:07.636Z,2.60
2018-11-20T15:39:02.984Z,2.50
2018-11-20T15:42:06.896Z,2.50
2018-11-20T15:45:05.217Z,2.50
2018-11-20T15:48:09.736Z,2.40
2018-11-20T15:51:11.352Z,2.40
2018-11-20T15:54:12.848Z,2.30
2018-11-20T15:57:13.646Z,2.20
2018-11-20T16:00:19.253Z,2.10
2018-11-20T16:03:23.277Z,2.00
2018-11-20T16:06:23.664Z,1.90
2018-11-20T16:09:24.794Z,1.80
2018-11-20T16:12:25.647Z,1.80
2018-11-20T16:15:27.273Z,1.80
2018-11-20T16:18:28.038Z,1.90
2018-11-20T16:21:32.205Z,1.90
2018-11-20T16:24:39.051Z,2.00
2018-11-20T16:27:40.762Z,1.90
2018-11-20T16:30:41.750Z,1.90
2018-11-20T16:40:27.327Z,2.30
2018-11-20T16:43:28.773Z,2.10
2018-11-20T16:46:30.202Z,2.10
2018-11-20T16:49:31.503Z,2.00
2018-11-20T16:52:32.636Z,1.90
2018-11-20T16:55:33.893Z,1.90
2018-11-20T16:58:35.482Z,1.70
2018-11-20T17:01:36.836Z,1.70
2018-11-20T17:04:38.077Z,1.60
2018-11-20T17:07:39.585Z,1.60
2018-11-20T17:10:47.196Z,1.60
2018-11-20T17:13:48.582Z,1.60
2018-11-20T17:16:44.798Z,1.60
2018-11-20T17:19:42.707Z,1.70
2018-11-20T17:23:04.038Z,1.60
2018-11-20T17:28:46.285Z,1.40
2018-11-20T17:31:55.054Z,1.30
2018-11-20T17:34:55.872Z,1.20
2018-11-20T17:37:54.999Z,1.00
2018-11-20T17:41:02.110Z,0.90
2018-11-20T17:44:02.930Z,0.80
2018-11-20T17:47:04.470Z,0.70
2018-11-20T17:50:06.038Z,0.60
2018-11-20T17:53:06.962Z,0.60
2018-11-20T17:58:49.062Z,0.50
2018-11-20T18:01:49.901Z,0.50
2018-11-20T18:04:54.666Z,0.40
2018-11-20T18:07:56.001Z,0.40
2018-11-20T18:10:53.346Z,0.30
2018-11-20T18:13:54.955Z,0.20
2018-11-20T18:22:57.952Z,0.30
2018-11-20T18:25:59.388Z,0.20
2018-11-20T18:29:01.109Z,0.20
2018-11-20T18:32:02.084Z,0.10
2018-11-20T18:35:03.741Z,0.10
2018-11-20T18:38:08.333Z,0.10
2018-11-20T18:41:09.990Z,0.10
2018-11-20T18:44:11.521Z,0.10
2018-11-20T18:47:13.207Z,0.20
2018-11-20T18:50:14.662Z,0.20
2018-11-20T18:53:09.670Z,0.20
2018-11-20T18:56:11.193Z,0.10
2018-11-20T18:59:12.882Z,0.10
2018-11-20T19:02:13.991Z,0.10
2018-11-20T19:05:18.175Z,0.10
2018-11-20T19:08:25.979Z,0.00
2018-11-20T19:11:22.059Z,-0.10
2018-11-20T19:14:22.883Z,-0.10
2018-11-20T19:17:26.757Z,-0.10
2018-11-20T19:20:28.108Z,-0.10
2018-11-20T19:23:28.845Z,-0.10
2018-11-20T19:26:35.840Z,-0.10
2018-11-20T19:29:36.904Z,-0.10
2018-11-20T19:32:38.397Z,0.00
2018-11-20T19:35:28.752Z,-0.10
2018-11-20T19:38:37.550Z,-0.10
2018-11-20T19:41:39.232Z,0.00
2018-11-20T19:44:40.168Z,0.00
2018-11-20T19:47:41.409Z,-0.10
2018-11-20T19:50:42.586Z,-0.10
2018-11-20T19:53:44.341Z,-0.20
2018-11-20T19:56:45.580Z,-0.30
2018-11-20T19:59:47.244Z,-0.30
2018-11-20T20:02:48.623Z,-0.30
2018-11-20T20:05:50.193Z,-0.30
2018-11-20T20:08:40.082Z,-0.30
2018-11-20T20:11:48.809Z,-0.40
2018-11-20T20:14:50.039Z,-0.40
2018-11-20T20:17:51.467Z,-0.40
2018-11-20T20:20:52.324Z,-0.40
2018-11-20T20:23:53.968Z,-0.40
2018-11-20T20:26:57.703Z,-0.50
2018-11-20T20:30:27.547Z,-0.60
2018-11-20T20:33:29.239Z,-0.60
2018-11-20T20:36:30.759Z,-0.50
2018-11-20T20:39:32.294Z,-0.60
2018-11-20T20:42:33.976Z,-0.70
2018-11-20T20:45:34.873Z,-0.70
2018-11-20T20:48:24.734Z,-0.70
2018-11-20T20:51:33.509Z,-0.70
2018-11-20T20:54:34.386Z,-0.80
2018-11-20T21:00:35.242Z,-0.80
2018-11-20T21:03:43.976Z,-0.90
2018-11-20T21:06:33.826Z,-0.90
2018-11-20T21:09:42.574Z,-0.90
2018-11-20T21:12:32.660Z,-0.90
2018-11-20T21:15:41.419Z,-0.90
2018-11-20T21:22:30.528Z,-0.90
2018-11-20T21:25:36.103Z,-1.10
2018-11-20T21:28:26.164Z,-1.20
2018-11-20T21:31:34.980Z,-1.30
2018-11-20T21:34:17.326Z,-1.40
2018-11-20T21:37:18.764Z,-1.40
2018-11-20T21:40:20.023Z,-1.40
2018-11-20T21:43:21.390Z,-1.40
2018-11-20T21:46:04.039Z,-1.40
2018-11-20T21:49:05.735Z,-1.40
2018-11-20T21:51:48.659Z,-1.30
2018-11-20T21:54:56.282Z,-1.30
2018-11-20T21:58:17.817Z,-1.30
2018-11-20T22:01:20.080Z,-1.30
2018-11-20T22:04:19.613Z,-1.30
2018-11-20T22:07:21.720Z,-1.40
2018-11-20T22:10:22.507Z,-1.40
2018-11-20T22:13:23.622Z,-1.40
2018-11-20T22:16:24.397Z,-1.40
2018-11-20T22:19:25.768Z,-1.40
2018-11-20T22:22:31.554Z,-1.30
2018-11-20T22:25:33.002Z,-1.20
2018-11-20T22:28:34.766Z,-1.10
2018-11-20T22:31:36.510Z,-1.00
2018-11-20T22:34:19.041Z,-1.00
2018-11-20T22:39:50.763Z,-1.00
2018-11-20T22:42:33.474Z,-1.00
2018-11-20T22:48:38.903Z,-1.00
2018-11-20T22:51:46.555Z,-1.20
2018-11-20T22:54:50.632Z,-1.20
2018-11-20T22:57:47.559Z,-1.20
2018-11-20T23:00:48.980Z,-1.20
2018-11-20T23:03:54.507Z,-1.30
2018-11-20T23:06:58.826Z,-1.30
2018-11-20T23:09:40.775Z,-1.40
2018-11-20T23:12:24.824Z,-1.40
2018-11-20T23:15:07.398Z,-1.30
2018-11-20T23:17:50.166Z,-1.40
2018-11-20T23:20:32.744Z,-1.40
2018-11-20T23:23:15.045Z,-1.40
2018-11-20T23:25:57.449Z,-1.40
2018-11-20T23:28:39.881Z,-1.30
2018-11-20T23:31:22.883Z,-1.30
2018-11-20T23:34:06.063Z,-1.30
2018-11-20T23:36:49.056Z,-1.20
2018-11-20T23:39:20.238Z,-1.20
2018-11-20T23:42:10.317Z,-1.20
2018-11-20T23:44:41.622Z,-1.10
2018-11-20T23:47:31.803Z,-1.00
2018-11-20T23:50:15.354Z,-1.00
2018-11-20T23:52:58.128Z,-1.00
2018-11-20T23:55:41.137Z,-0.90
